Time;durP1;ratioP1;P1;durP2;ratioP2;P2;SDS_P1;SDS_P2;PMS_P1;PMS_P2;Temp;Humidity;BMP_temperature;BMP_pressure;BME280_temperature;BME280_humidity;BME280_pressure;Samples;Min_cycle;Max_cycle;Signal;HPM_P1;HPM_P2
2023/03/19 00:02:02;;;;;;;;;;;;;;;17.18;40.98;93021.94;5084930;28;19943;-90
2023/03/19 00:04:27;;;;;;;;;;;;;;;17.17;41.15;93023.19;5051739;28;20254;-89
2023/03/19 00:06:53;;;;;;;;;;;;;;;17.18;41.31;93027.38;5077001;28;19924;-91
2023/03/19 00:09:18;;;;;;;;;;;;;;;17.18;40.92;93029.38;5110196;27;19932;-90
2023/03/19 00:11:43;;;;;;;;;;;;;;;17.18;40.94;93027.38;5050988;28;19960;-90
2023/03/19 00:14:09;;;;;;;;;;;;;;;17.17;41.34;93034.09;5064257;28;19925;-91
2023/03/19 00:16:35;;;;;;;;;;;;;;;17.16;41.20;93027.16;5065260;28;20016;-90
2023/03/19 00:19:01;;;;;;;;;;;;;;;17.17;41.25;93030.63;5065233;28;19960;-91
2023/03/19 00:21:27;;;;;;;;;;;;;;;17.14;40.84;93030.41;5080913;28;19967;-90
2023/03/19 00:23:56;;;;;;;;;;;;;;;17.15;41.14;93033.88;5065564;28;19932;-90
2023/03/19 00:26:21;;;;;;;;;;;;;;;17.14;41.08;93027.66;5047945;28;20430;-89
2023/03/19 00:28:46;;;;;;;;;;;;;;;17.13;41.36;93037.13;5065779;28;19947;-89
2023/03/19 00:31:13;;;;;;;;;;;;;;;17.15;41.06;93031.13;5064333;28;20305;-92
2023/03/19 00:33:38;;;;;;;;;;;;;;;17.14;41.36;93026.94;5081678;28;20345;-89
2023/03/19 00:36:04;;;;;;;;;;;;;;;17.16;41.42;93031.88;5081788;28;20014;-90
2023/03/19 00:38:29;;;;;;;;;;;;;;;17.14;41.09;93027.66;5049016;28;20377;-90
2023/03/19 00:40:55;;;;;;;;;;;;;;;17.13;41.21;93028.91;5065645;28;19929;-93
2023/03/19 00:43:20;;;;;;;;;;;;;;;17.12;41.29;93013.78;5047854;28;19921;-90
2023/03/19 00:45:45;;;;;;;;;;;;;;;17.11;41.37;93025.97;5064126;28;20328;-89
2023/03/19 00:48:11;;;;;;;;;;;;;;;17.13;41.13;93025.44;5064576;28;19943;-89
2023/03/19 00:50:36;;;;;;;;;;;;;;;17.14;41.02;93026.94;5064997;28;19924;-91
2023/03/19 00:53:01;;;;;;;;;;;;;;;17.14;41.35;93027.66;5049277;28;20141;-89
2023/03/19 00:55:27;;;;;;;;;;;;;;;17.14;40.88;93024.94;5047933;28;19972;-92
2023/03/19 00:57:53;;;;;;;;;;;;;;;17.13;41.22;93018.00;5068648;28;19928;-90
2023/03/19 01:00:18;;;;;;;;;;;;;;;17.13;41.08;93030.91;5085219;28;20363;-89
2023/03/19 01:02:44;;;;;;;;;;;;;;;17.13;41.23;93028.91;5051930;28;19920;-91
2023/03/19 01:05:09;;;;;;;;;;;;;;;17.11;41.25;93009.56;5085245;28;20399;-89
2023/03/19 01:07:34;;;;;;;;;;;;;;;17.11;41.39;93017.75;5052347;28;20462;-89
2023/03/19 01:10:00;;;;;;;;;;;;;;;17.11;41.03;93017.75;5101530;28;20279;-90
2023/03/19 01:12:25;;;;;;;;;;;;;;;17.11;41.33;93017.03;5068013;28;20390;-89
2023/03/19 01:14:50;;;;;;;;;;;;;;;17.12;40.98;93018.50;5085076;28;19925;-92
2023/03/19 01:17:15;;;;;;;;;;;;;;;17.11;41.11;93030.69;5067292;28;20310;-90
2023/03/19 01:19:41;;;;;;;;;;;;;;;17.10;41.11;93024.47;5068700;28;20017;-89
2023/03/19 01:22:06;;;;;;;;;;;;;;;17.11;41.05;93025.22;5074050;28;20430;-89
2023/03/19 01:24:31;;;;;;;;;;;;;;;17.11;40.97;93015.03;5053166;28;19935;-90
2023/03/19 01:26:56;;;;;;;;;;;;;;;17.09;41.05;93023.03;5068122;28;19946;-91
2023/03/19 01:29:22;;;;;;;;;;;;;;;17.09;41.39;93012.09;5067983;28;19936;-90
2023/03/19 01:31:47;;;;;;;;;;;;;;;17.09;41.00;93025.75;5069820;28;19917;-90
2023/03/19 01:34:12;;;;;;;;;;;;;;;17.09;41.10;93019.56;5067388;28;20306;-90
2023/03/19 01:36:37;;;;;;;;;;;;;;;17.10;41.38;93010.09;5085114;28;20014;-90
2023/03/19 01:39:03;;;;;;;;;;;;;;;17.08;41.08;93024.28;5067904;28;20394;-89
2023/03/19 01:41:28;;;;;;;;;;;;;;;17.10;41.33;93012.84;5051171;28;19932;-89
2023/03/19 01:43:53;;;;;;;;;;;;;;;17.09;41.25;93019.56;5067937;28;19916;-89
2023/03/19 01:46:27;;;;;;;;;;;;;;;17.10;41.36;93021.03;5066781;28;19946;-89
2023/03/19 01:48:53;;;;;;;;;;;;;;;17.09;41.03;93028.47;5085123;28;19925;-91
2023/03/19 01:51:19;;;;;;;;;;;;;;;17.09;41.12;93025.75;5066909;28;19931;-89
2023/03/19 01:53:46;;;;;;;;;;;;;;;17.08;41.38;93020.81;5068225;28;19928;-89
2023/03/19 01:56:13;;;;;;;;;;;;;;;17.07;41.18;93016.59;5083801;28;19937;-89
2023/03/19 01:58:39;;;;;;;;;;;;;;;17.06;41.32;93018.56;5051116;28;20040;-90
2023/03/19 02:01:04;;;;;;;;;;;;;;;17.06;41.27;93015.84;5083751;28;20359;-89
2023/03/19 02:03:30;;;;;;;;;;;;;;;17.05;41.48;93008.91;5050724;28;20383;-92
2023/03/19 02:05:55;;;;;;;;;;;;;;;17.06;41.08;93020.56;5101275;28;20172;-89
2023/03/19 02:08:21;;;;;;;;;;;;;;;17.07;41.00;93019.31;5083226;28;20015;-90
2023/03/19 02:10:47;;;;;;;;;;;;;;;17.08;41.12;93009.88;5050656;28;19929;-91
2023/03/19 02:13:12;;;;;;;;;;;;;;;17.08;40.99;93018.06;5049863;28;20366;-89
2023/03/19 02:15:37;;;;;;;;;;;;;;;17.07;41.21;93014.59;5083655;28;19932;-89
2023/03/19 02:18:03;;;;;;;;;;;;;;;17.07;41.05;93016.59;5083633;28;20027;-89
2023/03/19 02:20:28;;;;;;;;;;;;;;;17.07;41.34;93005.66;5084785;28;20439;-90
2023/03/19 02:22:53;;;;;;;;;;;;;;;17.07;41.14;93000.19;5070668;28;19978;-90
2023/03/19 02:25:20;;;;;;;;;;;;;;;17.06;40.91;93007.66;5055943;28;19929;-89
2023/03/19 02:27:46;;;;;;;;;;;;;;;17.05;41.22;93006.19;5066503;28;19933;-92
2023/03/19 02:30:23;;;;;;;;;;;;;;;17.07;41.37;93011.13;5066481;28;20280;-90
2023/03/19 02:32:48;;;;;;;;;;;;;;;17.05;41.28;93019.81;5084238;28;19946;-90
2023/03/19 02:35:13;;;;;;;;;;;;;;;17.04;41.18;93018.34;5065545;28;19924;-90
2023/03/19 02:37:38;;;;;;;;;;;;;;;17.04;41.33;93007.41;5067278;28;19922;-90
2023/03/19 02:40:08;;;;;;;;;;;;;;;17.05;41.48;93019.09;5066375;28;20473;-89
2023/03/19 02:42:33;;;;;;;;;;;;;;;17.05;40.82;93017.09;5067219;28;19970;-91
2023/03/19 02:44:58;;;;;;;;;;;;;;;17.06;41.00;93015.09;5050446;28;19916;-90
2023/03/19 02:47:25;;;;;;;;;;;;;;;17.06;41.39;93024.03;5065294;28;19932;-90
2023/03/19 02:49:50;;;;;;;;;;;;;;;17.06;41.27;93010.38;5084140;28;21368;-89
2023/03/19 02:52:15;;;;;;;;;;;;;;;17.06;41.12;93020.56;5062774;28;19972;-90
2023/03/19 02:54:41;;;;;;;;;;;;;;;17.05;41.12;93014.38;5065152;28;19983;-90
2023/03/19 02:57:06;;;;;;;;;;;;;;;17.07;41.06;93022.06;5066556;28;19936;-90
2023/03/19 02:59:31;;;;;;;;;;;;;;;17.06;40.97;93024.03;5066496;28;20358;-90
2023/03/19 03:01:56;;;;;;;;;;;;;;;17.05;41.28;93019.81;5065248;28;20015;-89
2023/03/19 03:04:22;;;;;;;;;;;;;;;17.05;41.22;93025.28;5065926;28;19934;-89
2023/03/19 03:06:47;;;;;;;;;;;;;;;17.06;41.40;93031.50;5082869;28;20260;-90
2023/03/19 03:09:12;;;;;;;;;;;;;;;17.06;41.06;93034.97;5066143;28;19932;-89
2023/03/19 03:11:39;;;;;;;;;;;;;;;17.05;41.25;93033.47;5082856;28;20330;-91
2023/03/19 03:14:05;;;;;;;;;;;;;;;17.06;41.06;93032.22;5083058;28;19970;-89
2023/03/19 03:16:31;;;;;;;;;;;;;;;17.05;40.85;93038.94;5082731;28;20259;-91
2023/03/19 03:18:57;;;;;;;;;;;;;;;17.04;40.95;93036.72;5083033;28;19929;-89
2023/03/19 03:21:22;;;;;;;;;;;;;;;17.05;41.00;93038.94;5082448;28;20015;-90
2023/03/19 03:23:48;;;;;;;;;;;;;;;17.04;41.09;93039.44;5065404;28;19931;-89
2023/03/19 03:26:13;;;;;;;;;;;;;;;17.04;41.42;93034.00;5065968;28;20032;-91
2023/03/19 03:28:38;;;;;;;;;;;;;;;17.03;41.22;93038.72;5066135;28;19939;-89
2023/03/19 03:31:04;;;;;;;;;;;;;;;17.04;41.03;93036.72;5065879;28;20284;-90
2023/03/19 03:33:29;;;;;;;;;;;;;;;17.03;41.32;93040.69;5082694;28;19924;-89
2023/03/19 03:35:55;;;;;;;;;;;;;;;17.01;41.40;93040.47;5099313;28;19939;-90
2023/03/19 03:38:20;;;;;;;;;;;;;;;17.02;41.18;93044.69;5065270;28;20493;-88
2023/03/19 03:40:49;;;;;;;;;;;;;;;17.01;41.49;93037.75;5065992;28;19924;-91
2023/03/19 03:43:15;;;;;;;;;;;;;;;17.01;40.98;93038.47;5048659;28;20345;-89
2023/03/19 03:45:42;;;;;;;;;;;;;;;17.01;41.02;93040.47;5065523;28;20003;-90
2023/03/19 03:48:07;;;;;;;;;;;;;;;16.99;41.43;93043.72;5065478;28;19924;-91
2023/03/19 03:50:33;;;;;;;;;;;;;;;17.00;41.01;93042.47;5065783;28;19947;-89
2023/03/19 03:52:58;;;;;;;;;;;;;;;16.99;41.37;93043.72;5065938;28;20311;-89
2023/03/19 03:55:23;;;;;;;;;;;;;;;17.00;41.41;93047.91;5082112;28;19952;-91
2023/03/19 03:57:48;;;;;;;;;;;;;;;16.99;41.38;93045.69;5065087;28;19920;-89
2023/03/19 04:00:18;;;;;;;;;;;;;;;16.99;41.15;93054.63;5081970;28;19928;-89
2023/03/19 04:02:43;;;;;;;;;;;;;;;16.98;41.30;93053.16;5065683;28;19928;-89
2023/03/19 04:05:08;;;;;;;;;;;;;;;16.99;41.32;93045.69;5082000;28;20330;-90
2023/03/19 04:07:33;;;;;;;;;;;;;;;16.99;41.39;93042.97;5065240;28;19964;-90
2023/03/19 04:09:59;;;;;;;;;;;;;;;16.99;41.37;93035.50;5065210;28;19981;-89
2023/03/19 04:12:24;;;;;;;;;;;;;;;16.99;41.48;93040.97;5064936;28;19920;-91
2023/03/19 04:14:50;;;;;;;;;;;;;;;16.98;41.41;93042.22;5081457;28;20196;-89
2023/03/19 04:17:17;;;;;;;;;;;;;;;16.98;41.13;93036.03;5081507;28;19924;-89
2023/03/19 04:19:42;;;;;;;;;;;;;;;16.98;41.35;93036.75;5066337;28;19921;-90
2023/03/19 04:22:08;;;;;;;;;;;;;;;16.97;41.28;93031.81;5081035;28;19931;-92
2023/03/19 04:24:33;;;;;;;;;;;;;;;16.98;41.26;93034.03;5049095;28;19951;-92
2023/03/19 04:26:59;;;;;;;;;;;;;;;16.99;40.88;93040.25;5064984;28;20294;-89
2023/03/19 04:29:25;;;;;;;;;;;;;;;17.00;41.28;93044.44;5081853;28;19960;-89
2023/03/19 04:31:50;;;;;;;;;;;;;;;16.98;41.58;93031.31;5081931;28;19959;-89
2023/03/19 04:34:16;;;;;;;;;;;;;;;16.97;41.06;93043.47;5081334;28;20243;-90
2023/03/19 04:36:41;;;;;;;;;;;;;;;16.98;41.10;93041.50;5081772;28;19924;-90
2023/03/19 04:39:07;;;;;;;;;;;;;;;16.97;41.19;93048.19;5081506;28;19940;-89
2023/03/19 04:41:32;;;;;;;;;;;;;;;16.96;41.14;93042.00;5081523;28;19932;-91
2023/03/19 04:43:57;;;;;;;;;;;;;;;16.95;40.99;93039.78;5082288;28;19974;-89
2023/03/19 04:46:22;;;;;;;;;;;;;;;16.97;41.07;93038.00;5081068;28;19933;-89
2023/03/19 04:48:48;;;;;;;;;;;;;;;16.96;41.54;93036.53;5066139;28;20283;-90
2023/03/19 04:51:13;;;;;;;;;;;;;;;16.97;41.28;93029.09;5080855;28;19920;-88
2023/03/19 04:53:39;;;;;;;;;;;;;;;16.97;41.31;93026.34;5048398;28;19930;-90
2023/03/19 04:56:05;;;;;;;;;;;;;;;16.97;41.24;93023.63;5063775;28;19932;-89
2023/03/19 04:58:31;;;;;;;;;;;;;;;16.94;41.43;93025.38;5065134;28;19928;-89
2023/03/19 05:00:56;;;;;;;;;;;;;;;16.96;41.18;93016.69;5065117;28;20123;-89
2023/03/19 05:03:21;;;;;;;;;;;;;;;16.95;41.21;93015.94;5064555;28;19925;-90
2023/03/19 05:05:46;;;;;;;;;;;;;;;16.96;41.21;93016.69;5047460;28;20454;-91
2023/03/19 05:08:12;;;;;;;;;;;;;;;16.96;41.45;93020.16;5080972;28;19935;-89
2023/03/19 05:10:38;;;;;;;;;;;;;;;16.95;41.10;93018.66;5064203;28;19925;-90
2023/03/19 05:13:04;;;;;;;;;;;;;;;16.96;41.40;93022.13;5064507;28;19973;-89
2023/03/19 05:15:29;;;;;;;;;;;;;;;16.95;41.33;93028.84;5064316;28;19928;-89
2023/03/19 05:17:54;;;;;;;;;;;;;;;16.94;41.41;93028.09;5065021;28;20407;-89
2023/03/19 05:20:22;;;;;;;;;;;;;;;16.95;41.38;93035.06;5047421;28;19928;-90
2023/03/19 05:22:47;;;;;;;;;;;;;;;16.95;41.25;93050.69;5076947;28;19935;-90
2023/03/19 05:25:13;;;;;;;;;;;;;;;16.96;40.92;93057.63;5058353;28;19925;-90
2023/03/19 05:27:38;;;;;;;;;;;;;;;16.97;40.85;93061.84;5047582;28;20070;-90
2023/03/19 05:30:04;;;;;;;;;;;;;;;16.96;41.18;93063.84;5063781;28;19951;-89
2023/03/19 05:32:29;;;;;;;;;;;;;;;16.96;41.12;93077.50;5064756;28;19925;-90
2023/03/19 05:34:55;;;;;;;;;;;;;;;16.96;41.34;93068.56;5063753;28;20234;-89
2023/03/19 05:37:20;;;;;;;;;;;;;;;16.97;41.05;93076.25;5081332;28;20294;-89
2023/03/19 05:39:45;;;;;;;;;;;;;;;16.96;41.40;93069.31;5064343;28;19963;-90
2023/03/19 05:42:11;;;;;;;;;;;;;;;16.98;41.23;93071.53;5065831;28;20371;-89
2023/03/19 05:44:36;;;;;;;;;;;;;;;16.97;41.26;93064.56;5067776;28;19981;-90
2023/03/19 05:47:01;;;;;;;;;;;;;;;16.98;41.03;93074.25;5051085;28;19928;-90
2023/03/19 05:49:27;;;;;;;;;;;;;;;16.98;41.38;93072.25;5084236;28;19975;-90
2023/03/19 05:51:52;;;;;;;;;;;;;;;16.98;40.95;93077.72;5051026;28;20414;-90
2023/03/19 05:54:17;;;;;;;;;;;;;;;17.00;41.33;93072.50;5050389;28;19947;-89
2023/03/19 05:56:43;;;;;;;;;;;;;;;17.00;41.23;93077.22;5067543;28;19928;-89
2023/03/19 05:59:08;;;;;;;;;;;;;;;17.02;41.43;93085.66;5067437;28;20017;-91
2023/03/19 06:01:34;;;;;;;;;;;;;;;17.01;40.81;93073.97;5067673;28;19924;-89
2023/03/19 06:03:59;;;;;;;;;;;;;;;17.02;41.10;93089.13;5067456;28;20330;-89
2023/03/19 06:06:25;;;;;;;;;;;;;;;17.02;41.02;93074.72;5066428;28;20232;-90
2023/03/19 06:08:51;;;;;;;;;;;;;;;17.03;41.09;93087.88;5083845;28;20012;-92
2023/03/19 06:11:16;;;;;;;;;;;;;;;17.02;40.91;93083.66;5066336;28;20007;-89
2023/03/19 06:13:42;;;;;;;;;;;;;;;17.05;40.67;93098.28;5101323;28;19924;-89
2023/03/19 06:16:07;;;;;;;;;;;;;;;17.04;41.15;93094.06;5066423;28;19960;-89
2023/03/19 06:18:34;;;;;;;;;;;;;;;17.04;40.92;93092.06;5084597;28;19929;-89
2023/03/19 06:20:59;;;;;;;;;;;;;;;17.05;41.01;93095.56;5084115;28;19929;-89
2023/03/19 06:23:25;;;;;;;;;;;;;;;17.04;40.66;93092.06;5093556;28;19932;-89
2023/03/19 06:25:50;;;;;;;;;;;;;;;17.05;40.72;93096.28;5080109;28;19925;-89
2023/03/19 06:28:15;;;;;;;;;;;;;;;17.06;41.07;93100.50;5066628;28;19989;-89
2023/03/19 06:30:41;;;;;;;;;;;;;;;17.07;40.91;93109.44;5083807;28;19964;-89
2023/03/19 06:33:06;;;;;;;;;;;;;;;17.07;40.61;93103.97;5050215;28;19937;-89
2023/03/19 06:35:31;;;;;;;;;;;;;;;17.06;41.06;93105.22;5049504;28;19931;-91
2023/03/19 06:37:57;;;;;;;;;;;;;;;17.07;40.78;93112.16;5100330;28;19933;-89
2023/03/19 06:40:22;;;;;;;;;;;;;;;17.05;40.61;93120.13;5066089;28;20305;-89
2023/03/19 06:42:47;;;;;;;;;;;;;;;17.07;40.79;93120.38;5067594;28;20034;-90
2023/03/19 06:45:15;;;;;;;;;;;;;;;17.07;40.86;93126.56;5065973;28;20031;-89
2023/03/19 06:47:40;;;;;;;;;;;;;;;17.06;40.88;93130.53;5066692;28;19928;-90
2023/03/19 06:50:06;;;;;;;;;;;;;;;17.05;40.95;93128.31;5066216;28;19935;-90
2023/03/19 06:52:31;;;;;;;;;;;;;;;17.06;40.86;93127.81;5066644;28;19929;-89
2023/03/19 06:54:56;;;;;;;;;;;;;;;17.07;40.74;93120.38;5082980;28;20338;-89
2023/03/19 06:57:21;;;;;;;;;;;;;;;17.06;41.02;93130.53;5082856;28;20302;-90
2023/03/19 06:59:47;;;;;;;;;;;;;;;17.06;41.15;93143.47;5082510;28;20268;-89
2023/03/19 07:02:12;;;;;;;;;;;;;;;17.07;41.25;93144.94;5048949;28;19974;-89
2023/03/19 07:04:37;;;;;;;;;;;;;;;17.07;40.97;93137.50;5066749;28;19928;-89
2023/03/19 07:07:04;;;;;;;;;;;;;;;17.07;41.13;93139.47;5065146;28;20270;-92
2023/03/19 07:09:29;;;;;;;;;;;;;;;17.06;41.01;93144.19;5065806;28;19971;-89
2023/03/19 07:11:55;;;;;;;;;;;;;;;17.06;40.87;93136.00;5065955;28;19966;-89
2023/03/19 07:14:20;;;;;;;;;;;;;;;17.06;41.25;93129.81;5065452;28;19920;-89
2023/03/19 07:16:45;;;;;;;;;;;;;;;17.07;41.03;93137.50;5066145;28;19920;-89
2023/03/19 07:19:11;;;;;;;;;;;;;;;17.09;41.05;93136.97;5066696;28;19931;-89
2023/03/19 07:21:37;;;;;;;;;;;;;;;17.09;41.20;93150.63;5066175;28;20371;-90
2023/03/19 07:24:02;;;;;;;;;;;;;;;17.08;40.97;93141.72;5099824;28;19951;-90
2023/03/19 07:26:27;;;;;;;;;;;;;;;17.08;41.12;93147.16;5065890;28;20344;-91
2023/03/19 07:28:53;;;;;;;;;;;;;;;17.10;41.21;93165.78;5060108;28;19934;-89
2023/03/19 07:31:18;;;;;;;;;;;;;;;17.09;40.87;93164.28;5071820;28;20366;-89
2023/03/19 07:33:43;;;;;;;;;;;;;;;17.09;41.25;93167.75;5086709;28;19932;-91
2023/03/19 07:36:08;;;;;;;;;;;;;;;17.10;41.16;93165.78;5076357;28;19951;-89
2023/03/19 07:38:34;;;;;;;;;;;;;;;17.10;40.82;93160.31;5081291;28;19927;-89
2023/03/19 07:40:59;;;;;;;;;;;;;;;17.10;40.95;93165.78;5066795;28;19970;-91
2023/03/19 07:43:24;;;;;;;;;;;;;;;17.10;40.95;93171.94;5080746;28;19966;-90
2023/03/19 07:45:50;;;;;;;;;;;;;;;17.10;40.82;93163.75;5067305;28;19924;-90
2023/03/19 07:48:15;;;;;;;;;;;;;;;17.11;41.35;93156.31;5070780;28;20010;-91
2023/03/19 07:50:40;;;;;;;;;;;;;;;17.11;41.29;93162.50;5070126;28;19928;-93
2023/03/19 07:53:06;;;;;;;;;;;;;;;17.11;40.91;93159.78;5085843;28;20434;-91
2023/03/19 07:55:31;;;;;;;;;;;;;;;17.12;40.77;93169.47;5052681;28;20199;-93
2023/03/19 07:57:57;;;;;;;;;;;;;;;17.12;40.84;93157.78;5070698;28;19995;-91
2023/03/19 08:00:22;;;;;;;;;;;;;;;17.12;41.24;93168.72;5095350;28;19928;-90
2023/03/19 08:02:47;;;;;;;;;;;;;;;17.13;41.34;93175.66;5080586;28;19935;-90
2023/03/19 08:05:13;;;;;;;;;;;;;;;17.13;40.81;93181.13;5094615;28;19924;-89
2023/03/19 08:07:38;;;;;;;;;;;;;;;17.12;41.31;93166.72;5097671;28;19991;-91
2023/03/19 08:10:04;;;;;;;;;;;;;;;17.13;41.36;93167.47;5093319;28;20392;-91
2023/03/19 08:12:30;;;;;;;;;;;;;;;17.13;41.09;93164.75;5095560;28;19920;-90
2023/03/19 08:14:55;;;;;;;;;;;;;;;17.14;41.18;93166.22;5078467;28;19948;-89
2023/03/19 08:17:21;;;;;;;;;;;;;;;17.13;41.05;93173.69;5075680;28;19943;-91
2023/03/19 08:19:46;;;;;;;;;;;;;;;17.14;40.85;93177.16;5076210;28;19924;-90
2023/03/19 08:22:11;;;;;;;;;;;;;;;17.16;41.14;93176.63;5075200;28;19959;-90
2023/03/19 08:24:37;;;;;;;;;;;;;;;17.16;41.27;93173.91;5087713;28;20417;-91
2023/03/19 08:27:02;;;;;;;;;;;;;;;17.14;41.27;93174.41;5052954;28;19928;-90
2023/03/19 08:29:28;;;;;;;;;;;;;;;17.16;41.01;93187.56;5068995;28;20017;-92
2023/03/19 08:31:53;;;;;;;;;;;;;;;17.16;40.92;93187.56;5052649;28;19924;-90
2023/03/19 08:34:19;;;;;;;;;;;;;;;17.16;40.82;93199.22;5067077;28;20023;-89
2023/03/19 08:36:45;;;;;;;;;;;;;;;17.17;41.20;93199.97;5102370;28;20395;-90
2023/03/19 08:39:10;;;;;;;;;;;;;;;17.17;40.87;93197.97;5051563;28;20371;-90
2023/03/19 08:41:35;;;;;;;;;;;;;;;17.18;40.85;93209.66;5069186;28;19923;-90
2023/03/19 08:44:01;;;;;;;;;;;;;;;17.18;40.91;93215.84;5068809;28;20177;-90
2023/03/19 08:46:28;;;;;;;;;;;;;;;17.18;41.09;93213.13;5067889;28;20338;-91
2023/03/19 08:48:53;;;;;;;;;;;;;;;17.17;40.67;93214.38;5068259;28;19928;-90
2023/03/19 08:51:18;;;;;;;;;;;;;;;17.19;41.02;93211.13;5084883;28;19931;-91
2023/03/19 08:53:43;;;;;;;;;;;;;;;17.17;40.92;93216.38;5069288;28;19928;-92
2023/03/19 08:56:09;;;;;;;;;;;;;;;17.17;40.79;93213.63;5067216;28;19950;-89
2023/03/19 08:58:34;;;;;;;;;;;;;;;17.17;41.06;93210.91;5085381;28;19928;-90
2023/03/19 09:01:01;;;;;;;;;;;;;;;17.18;40.74;93209.66;5083928;28;19928;-90
2023/03/19 09:03:26;;;;;;;;;;;;;;;17.18;41.05;93204.19;5050645;28;19928;-89
2023/03/19 09:05:51;;;;;;;;;;;;;;;17.17;41.06;93205.44;5059472;28;20320;-90
2023/03/19 09:08:16;;;;;;;;;;;;;;;17.18;41.24;93212.38;5045844;28;19964;-90
2023/03/19 09:10:42;;;;;;;;;;;;;;;17.19;40.82;93216.59;5068100;28;19929;-89
2023/03/19 09:13:07;;;;;;;;;;;;;;;17.18;41.05;93215.84;5076108;28;19925;-91
2023/03/19 09:15:32;;;;;;;;;;;;;;;17.17;41.01;93219.84;5043698;28;20294;-90
2023/03/19 09:17:57;;;;;;;;;;;;;;;17.17;40.92;93214.38;5064567;28;19936;-90
2023/03/19 09:20:23;;;;;;;;;;;;;;;17.18;40.99;93209.66;5048346;28;19944;-89
2023/03/19 09:22:48;;;;;;;;;;;;;;;17.19;40.87;93205.69;5041380;28;19968;-89
2023/03/19 09:25:13;;;;;;;;;;;;;;;17.17;41.14;93211.66;5064598;28;19924;-92
2023/03/19 09:27:38;;;;;;;;;;;;;;;17.17;41.14;93210.91;5068910;28;19930;-91
2023/03/19 09:30:04;;;;;;;;;;;;;;;17.18;41.00;93206.91;5051633;28;20505;-92
2023/03/19 09:32:29;;;;;;;;;;;;;;;17.17;41.23;93206.19;5034988;28;19924;-89
2023/03/19 09:34:54;;;;;;;;;;;;;;;17.17;41.23;93210.91;5051969;28;19973;-91
2023/03/19 09:37:20;;;;;;;;;;;;;;;17.17;41.40;93210.91;5044281;28;19928;-89
2023/03/19 09:39:45;;;;;;;;;;;;;;;17.16;41.10;93209.41;5039398;28;19974;-90
2023/03/19 09:42:29;;;;;;;;;;;;;;;17.17;41.48;93199.97;5047085;28;19944;-89
2023/03/19 09:44:54;;;;;;;;;;;;;;;17.16;41.49;93210.16;5081633;28;19928;-89
2023/03/19 09:47:25;;;;;;;;;;;;;;;17.17;41.36;93206.19;5044826;28;20363;-90
2023/03/19 09:49:52;;;;;;;;;;;;;;;17.18;41.27;93209.66;5060497;28;19932;-90
2023/03/19 09:52:31;;;;;;;;;;;;;;;17.17;41.38;93205.44;5041558;28;20414;-89
2023/03/19 09:54:58;;;;;;;;;;;;;;;17.17;41.42;93210.91;5049459;28;19932;-88
2023/03/19 09:57:23;;;;;;;;;;;;;;;17.18;41.24;93220.56;5062428;28;19928;-89
2023/03/19 09:59:48;;;;;;;;;;;;;;;17.17;41.00;93206.19;5050878;28;19925;-89
2023/03/19 10:02:25;;;;;;;;;;;;;;;17.17;41.45;93208.91;5044921;28;20641;-90
2023/03/19 10:05:00;;;;;;;;;;;;;;;17.18;41.50;93196.00;5028876;28;19929;-89
2023/03/19 10:07:28;;;;;;;;;;;;;;;17.18;41.41;93210.41;5064336;28;20448;-89
2023/03/19 10:09:53;;;;;;;;;;;;;;;17.19;41.45;93197.47;5052424;28;20034;-89
2023/03/19 10:12:19;;;;;;;;;;;;;;;17.18;41.41;93212.38;5064531;28;19920;-90
2023/03/19 10:14:51;;;;;;;;;;;;;;;17.18;41.17;93213.13;5067686;28;19958;-91
2023/03/19 10:17:20;;;;;;;;;;;;;;;17.18;41.32;93204.19;5084172;28;19928;-89
2023/03/19 10:19:50;;;;;;;;;;;;;;;17.19;41.68;93211.13;5049273;28;19970;-89
2023/03/19 10:22:18;;;;;;;;;;;;;;;17.19;41.13;93214.63;5066363;28;20456;-89
2023/03/19 10:24:43;;;;;;;;;;;;;;;17.19;41.57;93220.06;5097767;28;19921;-90
2023/03/19 10:27:11;;;;;;;;;;;;;;;17.19;41.21;93219.34;5082727;28;19928;-91
2023/03/19 10:29:36;;;;;;;;;;;;;;;17.20;41.32;93215.34;5082555;28;20131;-91
2023/03/19 10:32:10;;;;;;;;;;;;;;;17.19;41.60;93211.88;5083292;28;20343;-92
2023/03/19 10:34:36;;;;;;;;;;;;;;;17.18;41.21;93218.59;5066771;28;19925;-89
2023/03/19 10:37:03;;;;;;;;;;;;;;;17.19;41.54;93209.16;5083073;28;19936;-91
2023/03/19 10:39:35;;;;;;;;;;;;;;;17.19;41.28;93206.41;5065906;28;19981;-89
2023/03/19 10:42:18;;;;;;;;;;;;;;;17.20;41.26;93207.91;5079340;28;20330;-89
2023/03/19 10:44:50;;;;;;;;;;;;;;;17.21;41.56;93217.56;5101115;28;19960;-90
2023/03/19 10:47:16;;;;;;;;;;;;;;;17.21;41.62;93214.84;5049717;28;19932;-88
2023/03/19 10:49:41;;;;;;;;;;;;;;;17.21;41.47;93214.09;5083278;28;20255;-90
2023/03/19 10:52:15;;;;;;;;;;;;;;;17.21;41.78;93217.56;5066161;28;20444;-89
2023/03/19 10:54:41;;;;;;;;;;;;;;;17.19;41.63;93202.94;5083461;28;19928;-89
2023/03/19 10:57:09;;;;;;;;;;;;;;;17.19;41.72;93214.63;5067011;28;20268;-91
2023/03/19 10:59:37;;;;;;;;;;;;;;;17.19;41.34;93203.69;5067565;28;19924;-90
2023/03/19 11:02:13;;;;;;;;;;;;;;;17.20;41.27;93212.63;5050180;28;19920;-90
2023/03/19 11:04:38;;;;;;;;;;;;;;;17.20;41.52;93207.91;5052361;28;19932;-90
2023/03/19 11:07:10;;;;;;;;;;;;;;;17.20;41.42;93202.44;5077314;28;19924;-90
2023/03/19 11:09:36;;;;;;;;;;;;;;;17.20;41.47;93204.44;5073679;28;19925;-91
2023/03/19 11:12:17;;;;;;;;;;;;;;;17.21;41.77;93208.63;5082565;28;19933;-89
2023/03/19 11:14:44;;;;;;;;;;;;;;;17.20;41.53;93209.88;5066762;28;19928;-89
2023/03/19 11:17:28;;;;;;;;;;;;;;;17.20;41.54;93196.22;5065147;28;19951;-89
2023/03/19 11:19:54;;;;;;;;;;;;;;;17.22;41.75;93193.72;5075056;28;20287;-89
2023/03/19 11:22:22;;;;;;;;;;;;;;;17.20;41.52;93199.72;5067691;28;20225;-91
2023/03/19 11:24:49;;;;;;;;;;;;;;;17.20;41.64;93199.72;5083064;28;19929;-90
2023/03/19 11:27:14;;;;;;;;;;;;;;;17.22;41.68;93199.94;5082380;28;19930;-90
2023/03/19 11:29:40;;;;;;;;;;;;;;;17.21;41.44;93203.91;5082350;28;20374;-90
2023/03/19 11:32:06;;;;;;;;;;;;;;;17.20;41.53;93207.91;5047960;28;19935;-90
2023/03/19 11:34:50;;;;;;;;;;;;;;;17.21;41.17;93194.97;5065169;28;19920;-90
2023/03/19 11:37:18;;;;;;;;;;;;;;;17.23;41.41;93190.50;5064927;28;19971;-91
2023/03/19 11:40:02;;;;;;;;;;;;;;;17.24;41.47;93196.69;5063850;28;20403;-93
2023/03/19 11:42:27;;;;;;;;;;;;;;;17.24;41.76;93191.25;5063732;28;19947;-89
2023/03/19 11:45:08;;;;;;;;;;;;;;;17.23;41.57;93190.50;5066589;28;20378;-90
2023/03/19 11:47:43;;;;;;;;;;;;;;;17.22;41.69;93189.00;5069326;28;20060;-90
2023/03/19 11:50:16;;;;;;;;;;;;;;;17.23;41.56;93187.78;5055485;28;20023;-91
2023/03/19 11:52:49;;;;;;;;;;;;;;;17.24;41.26;93178.31;5059754;28;19967;-90
2023/03/19 11:55:20;;;;;;;;;;;;;;;17.25;41.64;93179.81;5035307;28;20410;-90
2023/03/19 11:58:01;;;;;;;;;;;;;;;17.25;41.69;93173.59;5049102;28;19933;-90
2023/03/19 12:00:34;;;;;;;;;;;;;;;17.25;41.62;93174.34;5069132;28;19935;-90
2023/03/19 12:03:09;;;;;;;;;;;;;;;17.26;41.73;93175.09;5051900;28;19935;-90
2023/03/19 12:05:40;;;;;;;;;;;;;;;17.25;41.72;93165.41;5069022;28;19947;-89
2023/03/19 12:08:11;;;;;;;;;;;;;;;17.27;41.49;93168.38;5119362;27;20007;-90
2023/03/19 12:10:41;;;;;;;;;;;;;;;17.25;41.71;93163.41;5118510;27;20123;-88
2023/03/19 12:13:07;;;;;;;;;;;;;;;17.26;41.42;93164.16;5037057;28;19925;-89
2023/03/19 12:15:41;;;;;;;;;;;;;;;17.27;41.79;93169.13;5066511;28;19927;-89
2023/03/19 12:18:19;;;;;;;;;;;;;;;17.27;41.80;93165.66;5066697;28;19929;-90
2023/03/19 12:20:45;;;;;;;;;;;;;;;17.28;41.42;93180.78;5042384;28;19924;-91
2023/03/19 12:23:10;;;;;;;;;;;;;;;17.28;41.75;93176.06;5062863;28;19928;-89
2023/03/19 12:25:38;;;;;;;;;;;;;;;17.28;41.34;93189.72;5070123;28;20298;-89
2023/03/19 12:28:13;;;;;;;;;;;;;;;17.30;41.77;93181.75;5070444;28;19929;-89
2023/03/19 12:30:40;;;;;;;;;;;;;;;17.28;41.36;93183.50;5090219;28;19924;-90
2023/03/19 12:33:06;;;;;;;;;;;;;;;17.28;41.75;93183.50;5071684;28;19927;-89
2023/03/19 12:35:38;;;;;;;;;;;;;;;17.28;41.68;93170.59;5087707;28;20228;-88
2023/03/19 12:38:22;;;;;;;;;;;;;;;17.29;41.60;93179.53;5056809;28;19935;-89
2023/03/19 12:40:50;;;;;;;;;;;;;;;17.31;41.77;93174.31;5086412;28;19920;-89
2023/03/19 12:43:22;;;;;;;;;;;;;;;17.31;41.73;93175.03;5067975;28;19934;-89
2023/03/19 12:45:49;;;;;;;;;;;;;;;17.31;41.31;93187.97;5051226;28;19924;-89